Japan Airlines Virtual Airport Information Service

Takamatsu Airport

ICAO: RJOT Country: Japan
Latitude: 34.2142 Longitude: 134.016
Latest Arrival : CAL178 (RCTP-RJOT) Latest Departure : SCC001 (RJOT-RJFK)


WX CaptureLIVE
Data provided by noaa.gov | Fetched at 18:08:17

METAR :

TAF : RJOT 291708Z 2918/0100 15005KT 9999 FEW010 BKN025 TEMPO 3000/3006 4000 -SHRA BR FEW003 SCT005 BKN008 TEMPO 3006/3015 3000 -SHRA BR FEW001 SCT003 BKN005


Runway Data for RJOT
Data provided by openaviationdata.com

Runway ID Mag Var Hdg Length Elevation Surface ILS Freq ILS Id ILS Slope
8 -7 79° 8195 ft 607 ft Asphalt -- -- --
26 -7 259° 8195 ft 607 ft Asphalt 109.7 IKT 3

Takamatsu Airport, Japan
Use only for reference purposes



Not for navigational purposes.